Time;durP1;ratioP1;P1;durP2;ratioP2;P2;SDS_P1;SDS_P2;PMS_P1;PMS_P2;Temp;Humidity;BMP_temperature;BMP_pressure;BME280_temperature;BME280_humidity;BME280_pressure;Samples;Min_cycle;Max_cycle;Signal;HPM_P1;HPM_P2
2022/10/12 00:01:39;;;;;;;;;0.00;0.00;;;;;;;;5012504;28;28798;-89
2022/10/12 00:04:05;;;;;;;;;0.00;0.00;;;;;;;;5011756;28;28447;-89
2022/10/12 00:06:30;;;;;;;;;0.00;0.00;;;;;;;;5013139;28;30103;-89
2022/10/12 00:08:55;;;;;;;;;0.00;0.00;;;;;;;;5031513;28;28582;-89
2022/10/12 00:11:22;;;;;;;;;0.00;0.00;;;;;;;;5032333;28;28437;-89
2022/10/12 00:13:48;;;;;;;;;0.00;0.00;;;;;;;;5047610;28;28377;-89
2022/10/12 00:16:13;;;;;;;;;0.00;0.00;;;;;;;;5047332;28;29225;-89
2022/10/12 00:18:39;;;;;;;;;0.00;0.00;;;;;;;;5048802;28;40253;-89
2022/10/12 00:21:07;;;;;;;;;0.00;0.00;;;;;;;;5047131;28;28669;-89
2022/10/12 00:23:32;;;;;;;;;0.00;0.00;;;;;;;;5034337;28;45469;-89
2022/10/12 00:26:06;;;;;;;;;0.00;0.00;;;;;;;;5012135;28;48493;-88
2022/10/12 00:28:31;;;;;;;;;0.00;0.00;;;;;;;;4997441;28;45553;-89
2022/10/12 00:30:56;;;;;;;;;0.00;0.00;;;;;;;;5029031;28;45433;-89
2022/10/12 00:33:22;;;;;;;;;0.00;0.00;;;;;;;;5032913;28;45573;-89
2022/10/12 00:35:47;;;;;;;;;0.00;0.00;;;;;;;;5026188;28;46038;-89
2022/10/12 00:38:12;;;;;;;;;0.00;0.00;;;;;;;;4994698;28;45868;-89
2022/10/12 00:40:37;;;;;;;;;0.00;0.00;;;;;;;;5035218;28;45607;-89
2022/10/12 00:43:02;;;;;;;;;0.33;0.33;;;;;;;;5023865;28;45507;-89
2022/10/12 00:45:28;;;;;;;;;0.00;0.00;;;;;;;;4999787;28;47395;-90
2022/10/12 00:47:55;;;;;;;;;0.00;0.00;;;;;;;;5016759;28;45367;-89
2022/10/12 00:50:24;;;;;;;;;0.00;0.00;;;;;;;;5017687;28;45417;-89
2022/10/12 00:52:57;;;;;;;;;0.00;0.00;;;;;;;;5004257;28;45452;-89
2022/10/12 00:55:24;;;;;;;;;0.00;0.00;;;;;;;;5029116;28;46322;-89
2022/10/12 00:57:50;;;;;;;;;0.00;0.00;;;;;;;;5009108;28;45376;-89
2022/10/12 01:00:16;;;;;;;;;0.00;0.00;;;;;;;;4999616;28;45244;-89
2022/10/12 01:02:42;;;;;;;;;0.00;0.00;;;;;;;;4998701;28;45586;-88
2022/10/12 01:05:08;;;;;;;;;0.00;0.00;;;;;;;;4999862;28;47347;-89
2022/10/12 01:07:34;;;;;;;;;0.00;0.00;;;;;;;;5016489;28;45772;-89
2022/10/12 01:09:59;;;;;;;;;0.00;0.00;;;;;;;;5012996;28;45538;-89
2022/10/12 01:12:25;;;;;;;;;0.00;0.00;;;;;;;;5018487;28;45562;-88
2022/10/12 01:14:50;;;;;;;;;0.00;0.00;;;;;;;;5008650;28;48482;-89
2022/10/12 01:17:27;;;;;;;;;0.00;0.00;;;;;;;;4998987;28;45745;-89
2022/10/12 01:20:11;;;;;;;;;0.00;0.00;;;;;;;;5014292;28;45532;-88
2022/10/12 01:22:42;;;;;;;;;0.00;0.00;;;;;;;;5035811;28;45614;-87
2022/10/12 01:25:13;;;;;;;;;0.00;0.00;;;;;;;;5037082;28;46263;-88
2022/10/12 01:27:46;;;;;;;;;0.00;0.00;;;;;;;;5036279;28;45354;-88
2022/10/12 01:30:25;;;;;;;;;0.00;0.00;;;;;;;;5036720;28;45442;-88
2022/10/12 01:33:01;;;;;;;;;0.00;0.00;;;;;;;;5036294;28;45354;-89
2022/10/12 01:35:36;;;;;;;;;0.00;0.00;;;;;;;;5018544;28;47328;-88
2022/10/12 01:38:04;;;;;;;;;0.00;0.00;;;;;;;;5035349;28;45514;-89
2022/10/12 01:40:32;;;;;;;;;0.00;0.00;;;;;;;;5036405;28;45421;-88
2022/10/12 01:42:57;;;;;;;;;0.00;0.00;;;;;;;;5036297;28;45358;-88
2022/10/12 01:45:23;;;;;;;;;0.00;0.00;;;;;;;;5018521;28;47089;-89
2022/10/12 01:47:51;;;;;;;;;0.00;0.00;;;;;;;;5017891;28;45474;-88
2022/10/12 01:50:17;;;;;;;;;0.00;0.00;;;;;;;;5036686;28;45534;-89
2022/10/12 01:52:50;;;;;;;;;0.00;0.00;;;;;;;;5034447;28;45501;-89
2022/10/12 01:55:25;;;;;;;;;0.00;0.00;;;;;;;;5012280;28;48067;-88
2022/10/12 01:58:03;;;;;;;;;0.00;0.00;;;;;;;;4998233;28;45351;-89
2022/10/12 02:00:29;;;;;;;;;0.00;0.00;;;;;;;;5016709;28;45373;-89
2022/10/12 02:03:00;;;;;;;;;0.00;0.00;;;;;;;;4998980;28;45463;-88
2022/10/12 02:05:32;;;;;;;;;0.00;0.00;;;;;;;;5016273;28;45678;-89
2022/10/12 02:07:57;;;;;;;;;0.00;0.00;;;;;;;;5000852;28;45772;-89
2022/10/12 02:10:43;;;;;;;;;0.00;0.00;;;;;;;;5006721;28;45392;-88
2022/10/12 02:13:09;;;;;;;;;0.00;0.00;;;;;;;;5024002;28;45501;-88
2022/10/12 02:15:36;;;;;;;;;0.00;0.00;;;;;;;;4998057;28;47351;-89
2022/10/12 02:18:03;;;;;;;;;0.00;0.00;;;;;;;;5015270;28;45387;-89
2022/10/12 02:20:30;;;;;;;;;0.00;0.00;;;;;;;;5016304;28;45780;-89
2022/10/12 02:22:55;;;;;;;;;0.00;0.00;;;;;;;;5027718;28;45390;-89
2022/10/12 02:25:21;;;;;;;;;0.00;0.00;;;;;;;;5035334;28;45390;-88
2022/10/12 02:27:51;;;;;;;;;4.00;4.00;;;;;;;;5025389;28;45355;-88
2022/10/12 02:30:16;;;;;;;;;0.00;0.00;;;;;;;;5051489;28;28504;-89
2022/10/12 02:32:51;;;;;;;;;0.00;0.00;;;;;;;;5050539;28;28428;-88
2022/10/12 02:35:17;;;;;;;;;0.00;0.00;;;;;;;;5030239;28;31438;-89
2022/10/12 02:37:44;;;;;;;;;0.00;0.00;;;;;;;;5015898;28;28758;-89
2022/10/12 02:40:18;;;;;;;;;3.00;3.00;;;;;;;;5033203;28;28615;-89
2022/10/12 02:42:52;;;;;;;;;0.00;0.00;;;;;;;;5027895;28;42198;-89
2022/10/12 02:45:18;;;;;;;;;0.00;0.00;;;;;;;;5029788;28;45615;-89
2022/10/12 02:47:45;;;;;;;;;28.00;28.00;;;;;;;;5013337;28;45506;-88
2022/10/12 02:50:11;;;;;;;;;0.00;0.00;;;;;;;;5054583;28;45350;-88
2022/10/12 02:52:36;;;;;;;;;0.00;0.00;;;;;;;;5033615;28;45982;-88
2022/10/12 02:55:02;;;;;;;;;0.00;0.00;;;;;;;;5034736;28;45511;-89
2022/10/12 02:57:27;;;;;;;;;0.00;0.00;;;;;;;;5017159;28;46155;-88
2022/10/12 02:59:52;;;;;;;;;0.00;0.00;;;;;;;;5016989;28;45483;-88
2022/10/12 03:02:17;;;;;;;;;0.00;0.00;;;;;;;;5016948;28;45624;-88
2022/10/12 03:04:43;;;;;;;;;0.00;0.00;;;;;;;;5006106;28;46964;-88
2022/10/12 03:07:08;;;;;;;;;0.00;0.00;;;;;;;;5014492;28;45369;-89
2022/10/12 03:09:33;;;;;;;;;0.00;0.00;;;;;;;;5026133;28;45254;-88
2022/10/12 03:11:58;;;;;;;;;0.00;0.00;;;;;;;;5034744;28;45441;-88
2022/10/12 03:14:25;;;;;;;;;0.00;0.00;;;;;;;;5025870;28;45508;-89
2022/10/12 03:16:51;;;;;;;;;0.00;0.00;;;;;;;;5015016;28;45801;-88
2022/10/12 03:19:16;;;;;;;;;0.00;0.00;;;;;;;;5026028;28;45496;-88
2022/10/12 03:21:41;;;;;;;;;0.00;0.00;;;;;;;;5021647;28;45533;-88
2022/10/12 03:24:06;;;;;;;;;0.00;0.00;;;;;;;;5034140;28;45392;-88
2022/10/12 03:26:32;;;;;;;;;0.00;0.00;;;;;;;;5034947;28;45494;-88
2022/10/12 03:28:57;;;;;;;;;0.00;0.00;;;;;;;;5016735;28;45287;-88
2022/10/12 03:31:22;;;;;;;;;0.00;0.00;;;;;;;;5034901;28;45462;-88
2022/10/12 03:33:47;;;;;;;;;0.00;0.00;;;;;;;;5034428;28;46412;-87
2022/10/12 03:36:12;;;;;;;;;0.00;0.00;;;;;;;;5025448;28;45425;-88
2022/10/12 03:38:38;;;;;;;;;0.00;0.00;;;;;;;;5022236;28;45342;-88
2022/10/12 03:41:03;;;;;;;;;0.00;0.00;;;;;;;;5035099;28;45334;-88
2022/10/12 03:43:28;;;;;;;;;0.00;0.00;;;;;;;;5015869;28;47592;-89
2022/10/12 03:45:53;;;;;;;;;0.00;0.00;;;;;;;;5034710;28;45376;-88
2022/10/12 03:48:18;;;;;;;;;0.00;0.00;;;;;;;;5034278;28;45498;-88
2022/10/12 03:50:48;;;;;;;;;0.00;0.00;;;;;;;;5034492;28;45425;-89
2022/10/12 03:53:13;;;;;;;;;0.00;0.00;;;;;;;;5014317;28;48191;-88
2022/10/12 03:55:38;;;;;;;;;0.00;0.00;;;;;;;;5014484;28;45422;-88
2022/10/12 03:58:03;;;;;;;;;0.00;0.00;;;;;;;;4996795;28;45426;-88
2022/10/12 04:00:28;;;;;;;;;0.00;0.00;;;;;;;;4996434;28;45581;-88
2022/10/12 04:02:54;;;;;;;;;0.00;0.00;;;;;;;;4996029;28;47352;-88
2022/10/12 04:05:19;;;;;;;;;0.00;0.00;;;;;;;;5013984;28;45720;-88
2022/10/12 04:07:44;;;;;;;;;0.00;0.00;;;;;;;;5013875;28;45291;-90
2022/10/12 04:10:10;;;;;;;;;0.00;0.00;;;;;;;;4996110;28;45693;-88
2022/10/12 04:12:35;;;;;;;;;0.00;0.00;;;;;;;;5014020;28;46397;-88
2022/10/12 04:15:00;;;;;;;;;0.33;0.33;;;;;;;;4998238;28;45383;-88
2022/10/12 04:17:25;;;;;;;;;0.00;0.00;;;;;;;;5018127;28;45269;-88
2022/10/12 04:19:50;;;;;;;;;0.00;0.00;;;;;;;;5001107;28;45480;-87
2022/10/12 04:22:16;;;;;;;;;0.00;0.00;;;;;;;;4999604;28;47056;-88
2022/10/12 04:24:41;;;;;;;;;0.00;0.00;;;;;;;;5018313;28;45465;-89
2022/10/12 04:27:06;;;;;;;;;0.00;0.00;;;;;;;;5019806;28;45501;-88
2022/10/12 04:29:31;;;;;;;;;0.00;0.00;;;;;;;;5019177;28;45363;-88
2022/10/12 04:31:56;;;;;;;;;0.00;0.00;;;;;;;;5038004;28;45592;-89
2022/10/12 04:34:22;;;;;;;;;0.00;0.00;;;;;;;;5018971;28;45480;-88
2022/10/12 04:36:47;;;;;;;;;0.00;0.00;;;;;;;;5036831;28;45663;-88
2022/10/12 04:39:12;;;;;;;;;0.00;0.00;;;;;;;;5036527;28;45379;-88
2022/10/12 04:41:38;;;;;;;;;0.00;0.00;;;;;;;;5035785;28;46319;-88
2022/10/12 04:44:04;;;;;;;;;0.00;0.00;;;;;;;;5017216;28;45366;-88
2022/10/12 04:46:29;;;;;;;;;0.00;0.00;;;;;;;;4999602;28;45407;-89
2022/10/12 04:48:54;;;;;;;;;0.00;0.00;;;;;;;;5026022;28;45469;-88
2022/10/12 04:51:19;;;;;;;;;0.00;0.00;;;;;;;;5018060;28;45446;-88
2022/10/12 04:53:44;;;;;;;;;0.00;0.00;;;;;;;;5017309;28;45370;-88
2022/10/12 04:56:09;;;;;;;;;0.00;0.00;;;;;;;;5026250;28;45610;-88
2022/10/12 04:58:35;;;;;;;;;0.00;0.00;;;;;;;;5034430;28;45691;-89
2022/10/12 05:01:00;;;;;;;;;0.00;0.00;;;;;;;;5036974;28;46306;-89
2022/10/12 05:03:25;;;;;;;;;0.00;0.00;;;;;;;;5036538;28;45447;-89
2022/10/12 05:05:51;;;;;;;;;0.00;0.00;;;;;;;;5037237;28;45452;-88
2022/10/12 05:08:16;;;;;;;;;0.00;0.00;;;;;;;;5036531;28;45752;-89
2022/10/12 05:10:41;;;;;;;;;0.00;0.00;;;;;;;;5017895;28;48377;-89
2022/10/12 05:13:06;;;;;;;;;0.00;0.00;;;;;;;;5037120;28;45354;-88
2022/10/12 05:15:32;;;;;;;;;0.00;0.00;;;;;;;;5008930;28;45495;-88
2022/10/12 05:17:57;;;;;;;;;0.00;0.00;;;;;;;;5035793;28;45366;-89
2022/10/12 05:20:22;;;;;;;;;0.00;0.00;;;;;;;;5036669;28;45482;-89
2022/10/12 05:22:47;;;;;;;;;0.00;0.00;;;;;;;;5034250;28;45807;-88
2022/10/12 05:25:13;;;;;;;;;0.00;0.00;;;;;;;;5036538;28;45228;-87
2022/10/12 05:27:38;;;;;;;;;0.00;0.00;;;;;;;;5033692;28;45443;-87
2022/10/12 05:30:04;;;;;;;;;0.00;0.00;;;;;;;;5035221;28;46420;-88
2022/10/12 05:32:29;;;;;;;;;0.00;0.00;;;;;;;;5023506;28;45348;-88
2022/10/12 05:34:54;;;;;;;;;0.00;0.00;;;;;;;;5035879;28;45252;-88
2022/10/12 05:37:19;;;;;;;;;0.00;0.00;;;;;;;;5036268;28;45403;-89
2022/10/12 05:39:45;;;;;;;;;0.00;0.00;;;;;;;;5015142;28;47037;-89
2022/10/12 05:42:10;;;;;;;;;0.00;0.00;;;;;;;;5015150;28;45467;-90
2022/10/12 05:44:35;;;;;;;;;0.00;0.00;;;;;;;;5035793;28;45371;-89
2022/10/12 05:47:01;;;;;;;;;0.00;0.00;;;;;;;;5011793;28;45547;-88
2022/10/12 05:49:26;;;;;;;;;0.00;0.00;;;;;;;;5035531;28;46315;-89
2022/10/12 05:51:51;;;;;;;;;0.00;0.00;;;;;;;;5018063;28;45624;-88
2022/10/12 05:54:16;;;;;;;;;0.00;0.00;;;;;;;;5018139;28;45389;-88
2022/10/12 05:56:42;;;;;;;;;0.00;0.00;;;;;;;;5018194;28;45431;-88
2022/10/12 05:59:07;;;;;;;;;0.00;0.00;;;;;;;;5017900;28;47901;-88
2022/10/12 06:01:33;;;;;;;;;0.00;0.00;;;;;;;;5018134;28;45587;-88
2022/10/12 06:03:58;;;;;;;;;0.00;0.00;;;;;;;;5017884;28;45497;-89
2022/10/12 06:06:23;;;;;;;;;0.00;0.00;;;;;;;;5036319;28;45271;-88
2022/10/12 06:08:48;;;;;;;;;0.00;0.00;;;;;;;;5035969;28;45315;-88
2022/10/12 06:11:13;;;;;;;;;0.00;0.00;;;;;;;;5035575;28;45861;-89
2022/10/12 06:13:39;;;;;;;;;0.00;0.00;;;;;;;;5018382;28;45463;-89
2022/10/12 06:16:04;;;;;;;;;1.00;1.00;;;;;;;;5035725;28;45509;-89
2022/10/12 06:18:29;;;;;;;;;0.00;0.00;;;;;;;;5035698;28;46340;-89
2022/10/12 06:20:55;;;;;;;;;0.00;0.00;;;;;;;;5017962;28;45692;-89
2022/10/12 06:23:21;;;;;;;;;0.00;0.00;;;;;;;;5017401;28;45455;-89
2022/10/12 06:25:47;;;;;;;;;0.00;0.00;;;;;;;;5018706;28;45441;-86
2022/10/12 06:28:12;;;;;;;;;0.00;0.00;;;;;;;;5035966;28;46141;-86
2022/10/12 06:30:38;;;;;;;;;0.00;0.00;;;;;;;;5035301;28;45465;-86
2022/10/12 06:33:03;;;;;;;;;0.00;0.00;;;;;;;;5035538;28;45439;-84
2022/10/12 06:35:28;;;;;;;;;0.00;0.00;;;;;;;;5035741;28;45422;-85
2022/10/12 06:37:53;;;;;;;;;0.00;0.00;;;;;;;;5016662;28;46401;-85
2022/10/12 06:40:19;;;;;;;;;0.00;0.00;;;;;;;;5035408;28;45485;-84
2022/10/12 06:42:44;;;;;;;;;0.00;0.00;;;;;;;;5024888;28;45323;-84
2022/10/12 06:45:09;;;;;;;;;0.00;0.00;;;;;;;;5015441;28;45411;-84
2022/10/12 06:47:35;;;;;;;;;0.00;0.00;;;;;;;;5015123;28;45595;-84
2022/10/12 06:50:00;;;;;;;;;0.00;0.00;;;;;;;;5014930;28;45318;-85
2022/10/12 06:52:25;;;;;;;;;0.00;0.00;;;;;;;;5015334;28;45351;-84
2022/10/12 06:54:50;;;;;;;;;0.00;0.00;;;;;;;;5014842;28;45342;-84
2022/10/12 06:57:15;;;;;;;;;0.00;0.00;;;;;;;;5019928;28;45641;-85
2022/10/12 06:59:41;;;;;;;;;0.00;0.00;;;;;;;;5034241;28;45588;-84
2022/10/12 07:02:07;;;;;;;;;0.00;0.00;;;;;;;;5016838;28;45606;-85
2022/10/12 07:04:32;;;;;;;;;0.00;0.00;;;;;;;;5034656;28;45367;-84
2022/10/12 07:06:58;;;;;;;;;0.00;0.00;;;;;;;;5028033;28;46776;-84
2022/10/12 07:09:23;;;;;;;;;0.00;0.00;;;;;;;;5019865;28;45413;-85
2022/10/12 07:11:48;;;;;;;;;6.00;6.00;;;;;;;;5023997;28;47677;-85
2022/10/12 07:14:13;;;;;;;;;4.00;4.00;;;;;;;;4997387;28;45820;-85
2022/10/12 07:16:38;;;;;;;;;3.00;3.00;;;;;;;;5021704;28;45911;-84
2022/10/12 07:19:04;;;;;;;;;0.00;0.00;;;;;;;;5027625;28;45875;-83
2022/10/12 07:21:29;;;;;;;;;0.00;0.00;;;;;;;;5027583;28;45451;-83
2022/10/12 07:23:54;;;;;;;;;0.00;0.00;;;;;;;;5019728;28;45618;-84
2022/10/12 07:26:19;;;;;;;;;0.00;0.00;;;;;;;;5015888;28;46482;-85
2022/10/12 07:28:44;;;;;;;;;0.00;0.00;;;;;;;;5016724;28;45447;-85
2022/10/12 07:31:10;;;;;;;;;0.00;0.00;;;;;;;;5026366;28;45382;-85
2022/10/12 07:33:37;;;;;;;;;0.00;0.00;;;;;;;;5024939;28;45541;-85
2022/10/12 07:36:02;;;;;;;;;0.00;0.00;;;;;;;;5019083;28;45740;-85
2022/10/12 07:38:28;;;;;;;;;0.00;0.00;;;;;;;;5026605;28;46452;-85
2022/10/12 07:40:53;;;;;;;;;2.00;2.00;;;;;;;;5030849;28;45420;-86
2022/10/12 07:43:19;;;;;;;;;0.00;0.00;;;;;;;;5024281;28;45401;-86
2022/10/12 07:45:44;;;;;;;;;0.00;0.00;;;;;;;;5019152;28;45365;-85
2022/10/12 07:48:09;;;;;;;;;0.00;0.00;;;;;;;;5023275;28;45287;-85
2022/10/12 07:50:35;;;;;;;;;0.00;0.00;;;;;;;;5023018;28;45537;-85
2022/10/12 07:53:00;;;;;;;;;0.00;0.00;;;;;;;;5021953;28;45270;-85
2022/10/12 07:55:25;;;;;;;;;0.00;0.00;;;;;;;;5023468;28;45647;-85
2022/10/12 07:57:50;;;;;;;;;0.00;0.00;;;;;;;;5026806;28;45311;-84
2022/10/12 08:00:15;;;;;;;;;12.00;12.00;;;;;;;;5021421;28;45346;-85
2022/10/12 08:02:41;;;;;;;;;0.00;0.00;;;;;;;;5014961;28;45409;-84
2022/10/12 08:05:06;;;;;;;;;0.00;0.00;;;;;;;;5015985;28;45632;-85
2022/10/12 08:07:31;;;;;;;;;0.00;0.00;;;;;;;;5021400;28;45434;-85
2022/10/12 08:09:57;;;;;;;;;0.00;0.00;;;;;;;;5019446;28;45418;-85
2022/10/12 08:12:22;;;;;;;;;0.00;0.00;;;;;;;;5018669;28;45268;-85
2022/10/12 08:14:47;;;;;;;;;0.00;0.00;;;;;;;;5015131;28;45510;-85
2022/10/12 08:17:12;;;;;;;;;0.00;0.00;;;;;;;;4998236;28;47283;-85
2022/10/12 08:19:38;;;;;;;;;0.00;0.00;;;;;;;;5017317;28;45482;-85
2022/10/12 08:22:03;;;;;;;;;0.00;0.00;;;;;;;;5027203;28;45336;-85
2022/10/12 08:24:28;;;;;;;;;0.00;0.00;;;;;;;;5018866;28;46763;-85
2022/10/12 08:26:53;;;;;;;;;0.00;0.00;;;;;;;;5017441;28;45373;-85
2022/10/12 08:29:18;;;;;;;;;0.00;0.00;;;;;;;;5024346;28;45324;-85
2022/10/12 08:31:43;;;;;;;;;0.00;0.00;;;;;;;;5006693;28;45489;-85
2022/10/12 08:34:09;;;;;;;;;0.00;0.00;;;;;;;;5026567;28;45535;-85
2022/10/12 08:36:34;;;;;;;;;0.00;0.00;;;;;;;;5024176;28;45477;-85
2022/10/12 08:38:59;;;;;;;;;0.00;0.00;;;;;;;;5019101;28;45775;-85
2022/10/12 08:41:36;;;;;;;;;0.00;0.00;;;;;;;;5018309;28;45611;-85
2022/10/12 08:44:16;;;;;;;;;0.00;0.00;;;;;;;;5024478;28;46602;-85
2022/10/12 08:46:41;;;;;;;;;0.00;0.00;;;;;;;;5022148;28;46681;-85
2022/10/12 08:49:06;;;;;;;;;0.00;0.00;;;;;;;;5023243;28;45650;-85
2022/10/12 08:51:35;;;;;;;;;0.00;0.00;;;;;;;;5024761;28;45416;-85
2022/10/12 08:54:00;;;;;;;;;0.00;0.00;;;;;;;;5023886;28;46513;-85
2022/10/12 08:56:25;;;;;;;;;0.00;0.00;;;;;;;;5027973;28;45513;-85
2022/10/12 08:58:51;;;;;;;;;0.00;0.00;;;;;;;;5026978;28;45561;-85
2022/10/12 09:01:19;;;;;;;;;0.00;0.00;;;;;;;;5024243;28;45571;-85
2022/10/12 09:04:03;;;;;;;;;0.00;0.00;;;;;;;;5029518;28;45746;-85
2022/10/12 09:06:34;;;;;;;;;0.00;0.00;;;;;;;;5023784;28;45493;-85
2022/10/12 09:09:13;;;;;;;;;0.00;0.00;;;;;;;;5027624;28;45591;-85
2022/10/12 09:12:04;;;;;;;;;0.00;0.00;;;;;;;;5026559;28;45465;-85
2022/10/12 09:14:34;;;;;;;;;0.00;0.00;;;;;;;;5024339;28;45536;-85
2022/10/12 09:17:00;;;;;;;;;0.00;0.00;;;;;;;;5023340;28;46541;-85
2022/10/12 09:19:32;;;;;;;;;0.00;0.00;;;;;;;;5028838;28;45511;-85
2022/10/12 09:21:57;;;;;;;;;0.00;0.00;;;;;;;;5026541;28;45545;-85
2022/10/12 09:24:27;;;;;;;;;0.00;0.00;;;;;;;;5026286;28;45579;-85
2022/10/12 09:26:57;;;;;;;;;0.00;0.00;;;;;;;;5024267;28;45470;-85
2022/10/12 09:29:27;;;;;;;;;0.00;0.00;;;;;;;;5028964;28;45542;-85
2022/10/12 09:32:07;;;;;;;;;0.00;0.00;;;;;;;;5032411;28;45480;-84
2022/10/12 09:34:32;;;;;;;;;0.00;0.00;;;;;;;;5031174;28;46851;-85
2022/10/12 09:36:57;;;;;;;;;0.00;0.00;;;;;;;;5023523;28;45681;-85
2022/10/12 09:39:30;;;;;;;;;0.00;0.00;;;;;;;;5011248;28;45441;-85
2022/10/12 09:41:55;;;;;;;;;0.00;0.00;;;;;;;;5024110;28;45546;-85
2022/10/12 09:44:34;;;;;;;;;0.00;0.00;;;;;;;;5030182;28;45431;-85
2022/10/12 09:47:03;;;;;;;;;0.00;0.00;;;;;;;;5033557;28;45458;-85
2022/10/12 09:49:38;;;;;;;;;0.00;0.00;;;;;;;;5022604;28;45553;-85
2022/10/12 09:52:03;;;;;;;;;0.00;0.00;;;;;;;;5029514;28;45354;-85
2022/10/12 09:54:29;;;;;;;;;0.00;0.00;;;;;;;;5023812;28;46508;-84
2022/10/12 09:56:54;;;;;;;;;0.00;0.00;;;;;;;;5024070;28;45446;-85
2022/10/12 09:59:24;;;;;;;;;0.00;0.00;;;;;;;;5027827;28;45627;-85
2022/10/12 10:02:16;;;;;;;;;0.00;0.00;;;;;;;;5029999;28;45453;-85
2022/10/12 10:04:42;;;;;;;;;0.00;0.00;;;;;;;;5019137;28;46505;-85
2022/10/12 10:07:40;;;;;;;;;0.00;0.00;;;;;;;;5027415;28;45395;-87
2022/10/12 10:10:09;;;;;;;;;0.00;0.00;;;;;;;;4953104;28;45904;-87
2022/10/12 10:12:41;;;;;;;;;0.00;0.00;;;;;;;;4958220;28;45503;-86
2022/10/12 10:15:17;;;;;;;;;0.00;0.00;;;;;;;;4954523;28;46328;-89
2022/10/12 10:17:47;;;;;;;;;0.00;0.00;;;;;;;;4950742;28;45681;-88
2022/10/12 10:20:21;;;;;;;;;0.00;0.00;;;;;;;;4952367;28;45573;-88
2022/10/12 10:22:47;;;;;;;;;0.00;0.00;;;;;;;;4960960;28;45543;-91
2022/10/12 10:25:18;;;;;;;;;0.00;0.00;;;;;;;;4950354;28;45675;-89
2022/10/12 10:27:43;;;;;;;;;0.00;0.00;;;;;;;;4958403;28;45988;-87
2022/10/12 10:30:15;;;;;;;;;0.00;0.00;;;;;;;;4940548;28;45743;-87
2022/10/12 10:32:40;;;;;;;;;0.00;0.00;;;;;;;;4929272;28;45532;-87
2022/10/12 10:35:26;;;;;;;;;0.00;0.00;;;;;;;;4943304;28;46777;-87
2022/10/12 10:37:54;;;;;;;;;0.00;0.00;;;;;;;;4954156;28;45392;-87
2022/10/12 10:40:22;;;;;;;;;0.00;0.00;;;;;;;;4963157;28;45639;-86
2022/10/12 10:42:52;;;;;;;;;0.00;0.00;;;;;;;;4959459;28;45425;-86
2022/10/12 10:45:25;;;;;;;;;0.00;0.00;;;;;;;;4985339;28;45554;-87
2022/10/12 10:47:55;;;;;;;;;0.00;0.00;;;;;;;;5019525;28;45561;-87
2022/10/12 10:50:25;;;;;;;;;0.00;0.00;;;;;;;;5010405;28;45347;-87
2022/10/12 10:52:54;;;;;;;;;0.00;0.00;;;;;;;;5029641;28;45527;-86
2022/10/12 10:55:20;;;;;;;;;0.00;0.00;;;;;;;;5009237;28;47725;-88
2022/10/12 10:57:48;;;;;;;;;0.00;0.00;;;;;;;;5021340;28;45670;-87
2022/10/12 11:00:14;;;;;;;;;0.00;0.00;;;;;;;;5020423;28;45294;-88
2022/10/12 11:02:45;;;;;;;;;0.00;0.00;;;;;;;;5016645;28;45478;-87
2022/10/12 11:05:10;;;;;;;;;0.00;0.00;;;;;;;;5021510;28;45636;-88
2022/10/12 11:07:47;;;;;;;;;0.00;0.00;;;;;;;;5006776;28;45461;-88
2022/10/12 11:10:25;;;;;;;;;0.00;0.00;;;;;;;;5011457;28;45553;-87
2022/10/12 11:12:55;;;;;;;;;0.00;0.00;;;;;;;;5022474;28;45454;-88
2022/10/12 11:15:23;;;;;;;;;0.00;0.00;;;;;;;;5033754;28;45325;-88
2022/10/12 11:17:51;;;;;;;;;0.00;0.00;;;;;;;;5008647;28;45395;-88
2022/10/12 11:20:16;;;;;;;;;0.00;0.00;;;;;;;;5003636;28;45414;-87
2022/10/12 11:22:41;;;;;;;;;0.00;0.00;;;;;;;;5030349;28;45466;-90
2022/10/12 11:25:07;;;;;;;;;0.00;0.00;;;;;;;;5010635;28;47954;-89
2022/10/12 11:27:39;;;;;;;;;0.00;0.00;;;;;;;;5003783;28;45830;-88
2022/10/12 11:30:18;;;;;;;;;0.00;0.00;;;;;;;;5011106;28;45668;-89
2022/10/12 11:33:02;;;;;;;;;0.00;0.00;;;;;;;;5014675;28;45607;-86
2022/10/12 11:35:33;;;;;;;;;0.00;0.00;;;;;;;;5009474;28;47243;-89
2022/10/12 11:38:12;;;;;;;;;0.00;0.00;;;;;;;;5025002;28;45428;-88
2022/10/12 11:41:00;;;;;;;;;0.00;0.00;;;;;;;;5027022;28;45502;-88
2022/10/12 11:43:28;;;;;;;;;0.00;0.00;;;;;;;;5013715;28;45595;-89
2022/10/12 11:45:55;;;;;;;;;0.00;0.00;;;;;;;;5000061;28;47133;-88
2022/10/12 11:48:30;;;;;;;;;0.00;0.00;;;;;;;;5003947;28;45360;-87
2022/10/12 11:50:56;;;;;;;;;0.00;0.00;;;;;;;;5023717;28;45345;-88
2022/10/12 11:53:24;;;;;;;;;0.00;0.00;;;;;;;;5009218;28;45775;-88
2022/10/12 11:55:50;;;;;;;;;0.00;0.00;;;;;;;;5024017;28;46285;-88
2022/10/12 11:58:21;;;;;;;;;0.00;0.00;;;;;;;;5024359;28;45449;-88
2022/10/12 12:01:05;;;;;;;;;0.00;0.00;;;;;;;;5026510;28;46262;-88
2022/10/12 12:03:36;;;;;;;;;0.00;0.00;;;;;;;;5008463;28;45903;-88
2022/10/12 12:06:20;;;;;;;;;0.00;0.00;;;;;;;;4999962;28;48560;-88
2022/10/12 12:08:45;;;;;;;;;0.00;0.00;;;;;;;;5020573;28;45830;-87
2022/10/12 12:11:19;;;;;;;;;0.00;0.00;;;;;;;;5015214;28;45470;-89
2022/10/12 12:13:44;;;;;;;;;0.00;0.00;;;;;;;;5001720;28;45542;-89
2022/10/12 12:16:12;;;;;;;;;0.00;0.00;;;;;;;;5030229;28;45537;-89
2022/10/12 12:18:56;;;;;;;;;0.00;0.00;;;;;;;;5003106;28;45462;-89
2022/10/12 12:21:21;;;;;;;;;0.00;0.00;;;;;;;;5018622;28;45635;-88
2022/10/12 12:23:46;;;;;;;;;0.00;0.00;;;;;;;;5005379;28;45956;-89
2022/10/12 12:26:13;;;;;;;;;97.00;79.00;;;;;;;;5029675;28;45988;-90
2022/10/12 12:29:07;;;;;;;;;0.00;0.00;;;;;;;;5023428;28;45402;-89
2022/10/12 12:31:32;;;;;;;;;0.00;0.00;;;;;;;;5002544;28;45545;-89
2022/10/12 12:34:03;;;;;;;;;0.00;0.00;;;;;;;;5019166;28;45685;-90
2022/10/12 12:36:32;;;;;;;;;0.00;0.00;;;;;;;;5010513;28;48152;-89
2022/10/12 12:38:57;;;;;;;;;0.00;0.00;;;;;;;;5026321;28;45364;-86
2022/10/12 12:41:41;;;;;;;;;0.00;0.00;;;;;;;;5000687;28;45591;-88
2022/10/12 12:44:27;;;;;;;;;0.00;0.00;;;;;;;;5023763;28;45588;-87
2022/10/12 12:46:55;;;;;;;;;0.00;0.00;;;;;;;;5015811;28;47718;-88
2022/10/12 12:49:39;;;;;;;;;0.00;0.00;;;;;;;;5020497;28;45966;-89
2022/10/12 12:52:23;;;;;;;;;0.00;0.00;;;;;;;;5011884;28;45483;-89
2022/10/12 12:55:07;;;;;;;;;0.00;0.00;;;;;;;;5006581;28;45529;-88
2022/10/12 12:57:32;;;;;;;;;0.00;0.00;;;;;;;;5007665;28;48362;-88
2022/10/12 13:00:05;;;;;;;;;0.00;0.00;;;;;;;;5007947;28;45492;-87
2022/10/12 13:02:30;;;;;;;;;0.00;0.00;;;;;;;;5011147;28;45447;-88
2022/10/12 13:05:17;;;;;;;;;0.00;0.00;;;;;;;;5009004;28;45565;-88
2022/10/12 13:08:07;;;;;;;;;0.00;0.00;;;;;;;;5024734;28;45438;-87
2022/10/12 13:10:32;;;;;;;;;0.00;0.00;;;;;;;;5019311;28;45417;-87
2022/10/12 13:12:58;;;;;;;;;0.00;0.00;;;;;;;;5021258;28;45353;-88
2022/10/12 13:15:26;;;;;;;;;0.00;0.00;;;;;;;;5029638;28;45374;-88
2022/10/12 13:18:00;;;;;;;;;0.00;0.00;;;;;;;;5028430;28;46553;-88
2022/10/12 13:20:27;;;;;;;;;0.00;0.00;;;;;;;;5020312;28;45484;-88
2022/10/12 13:22:54;;;;;;;;;0.00;0.00;;;;;;;;5025711;28;45517;-89
2022/10/12 13:25:37;;;;;;;;;0.00;0.00;;;;;;;;5030700;28;45424;-89
2022/10/12 13:28:05;;;;;;;;;0.00;0.00;;;;;;;;5008001;28;47775;-88
2022/10/12 13:30:37;;;;;;;;;0.00;0.00;;;;;;;;5012372;28;45912;-88
2022/10/12 13:33:03;;;;;;;;;0.00;0.00;;;;;;;;5027818;28;45569;-88
2022/10/12 13:35:28;;;;;;;;;0.00;0.00;;;;;;;;5010487;28;45834;-88
2022/10/12 13:38:19;;;;;;;;;0.00;0.00;;;;;;;;5031591;28;45481;-88
2022/10/12 13:40:50;;;;;;;;;0.00;0.00;;;;;;;;5024618;28;45428;-88
2022/10/12 13:43:18;;;;;;;;;0.00;0.00;;;;;;;;5029054;28;45515;-87
2022/10/12 13:45:45;;;;;;;;;0.00;0.00;;;;;;;;5017709;28;45483;-88
2022/10/12 13:48:15;;;;;;;;;0.00;0.00;;;;;;;;5001941;28;47610;-88
2022/10/12 13:50:48;;;;;;;;;0.00;0.00;;;;;;;;5029282;28;45458;-88
2022/10/12 13:53:14;;;;;;;;;0.00;0.00;;;;;;;;5023983;28;45505;-88
2022/10/12 13:55:40;;;;;;;;;0.00;0.00;;;;;;;;5011173;28;45482;-88
2022/10/12 13:58:19;;;;;;;;;0.00;0.00;;;;;;;;5022668;28;46292;-88
2022/10/12 14:00:47;;;;;;;;;0.00;0.00;;;;;;;;5015919;28;45518;-88
2022/10/12 14:03:12;;;;;;;;;0.00;0.00;;;;;;;;5022497;28;45533;-88
2022/10/12 14:05:42;;;;;;;;;0.00;0.00;;;;;;;;5010712;28;45394;-88
2022/10/12 14:08:13;;;;;;;;;0.00;0.00;;;;;;;;5022086;28;46278;-88
2022/10/12 14:10:40;;;;;;;;;0.00;0.00;;;;;;;;4999065;28;45724;-88
2022/10/12 14:13:05;;;;;;;;;0.00;0.00;;;;;;;;5002706;28;45779;-88
2022/10/12 14:15:33;;;;;;;;;0.00;0.00;;;;;;;;5033462;28;45546;-89
2022/10/12 14:17:58;;;;;;;;;0.00;0.00;;;;;;;;5020744;28;45666;-88
2022/10/12 14:20:23;;;;;;;;;0.00;0.00;;;;;;;;5017420;28;45797;-89
2022/10/12 14:22:49;;;;;;;;;0.00;0.00;;;;;;;;5018989;28;45671;-88
2022/10/12 14:25:19;;;;;;;;;0.00;0.00;;;;;;;;5002825;28;45802;-88
2022/10/12 14:27:44;;;;;;;;;0.00;0.00;;;;;;;;5034494;28;45780;-88
2022/10/12 14:30:36;;;;;;;;;0.00;0.00;;;;;;;;5029259;28;46641;-88
2022/10/12 14:33:09;;;;;;;;;0.00;0.00;;;;;;;;5023422;28;45672;-87
2022/10/12 14:35:36;;;;;;;;;0.00;0.00;;;;;;;;5029328;28;45557;-89
2022/10/12 14:38:21;;;;;;;;;0.00;0.00;;;;;;;;5021190;28;45522;-88
2022/10/12 14:40:46;;;;;;;;;0.00;0.00;;;;;;;;4999734;28;45415;-86
2022/10/12 14:43:11;;;;;;;;;0.00;0.00;;;;;;;;5024288;28;45770;-85
2022/10/12 14:45:37;;;;;;;;;0.00;0.00;;;;;;;;5033039;28;45519;-91
2022/10/12 14:48:03;;;;;;;;;0.00;0.00;;;;;;;;5024731;28;45489;-87
2022/10/12 14:50:30;;;;;;;;;0.00;0.00;;;;;;;;5031948;28;45471;-88